createdAt,value
2018-10-02T00:01:58.871Z,100858.39
2018-10-02T00:04:28.067Z,100856.11
2018-10-02T00:06:57.320Z,100858.56
2018-10-02T00:09:26.459Z,100857.82
2018-10-02T00:12:00.869Z,100860.16
2018-10-02T00:14:30.799Z,100865.63
2018-10-02T00:16:59.997Z,100863.84
2018-10-02T00:19:30.142Z,100857.95
2018-10-02T00:21:59.350Z,100857.72
2018-10-02T00:24:28.544Z,100861.61
2018-10-02T00:26:57.739Z,100862.89
2018-10-02T00:29:26.896Z,100864.41
2018-10-02T00:31:56.218Z,100865.24
2018-10-02T00:34:25.361Z,100855.33
2018-10-02T00:36:54.903Z,100859.11
2018-10-02T00:39:24.123Z,100864.61
2018-10-02T00:41:53.339Z,100855.43
2018-10-02T00:44:22.506Z,100853.27
2018-10-02T00:46:51.675Z,100850.58
2018-10-02T00:49:20.830Z,100848.19
2018-10-02T00:51:50.003Z,100847.17
2018-10-02T00:54:19.177Z,100839.34
2018-10-02T00:56:48.407Z,100848.67
2018-10-02T00:59:17.648Z,100843.84
2018-10-02T01:01:46.849Z,100850.18
2018-10-02T01:04:16.479Z,100844.44
2018-10-02T01:06:45.688Z,100835.94
2018-10-02T01:09:15.045Z,100844.70
2018-10-02T01:11:44.256Z,100841.61
2018-10-02T01:14:14.158Z,100842.22
2018-10-02T01:16:43.323Z,100844.50
2018-10-02T01:19:12.867Z,100836.94
2018-10-02T01:21:42.005Z,100841.28
2018-10-02T01:24:11.182Z,100833.80
2018-10-02T01:26:40.422Z,100836.36
2018-10-02T01:29:09.918Z,100837.53
2018-10-02T01:31:39.111Z,100832.45
2018-10-02T01:34:08.304Z,100832.12
2018-10-02T01:36:37.494Z,100829.88
2018-10-02T01:39:07.111Z,100829.23
2018-10-02T01:41:39.149Z,100829.20
2018-10-02T01:44:08.295Z,100823.22
2018-10-02T01:46:37.485Z,100826.45
2018-10-02T01:49:06.959Z,100827.72
2018-10-02T01:51:36.144Z,100825.44
2018-10-02T01:54:05.327Z,100822.27
2018-10-02T01:56:34.553Z,100825.53
2018-10-02T01:59:04.940Z,100829.20
2018-10-02T02:01:34.151Z,100824.60
2018-10-02T02:04:03.326Z,100819.60
2018-10-02T02:06:32.571Z,100822.05
2018-10-02T02:09:01.742Z,100822.72
2018-10-02T02:11:30.986Z,100817.86
2018-10-02T02:14:00.130Z,100829.63
2018-10-02T02:16:29.372Z,100837.63
2018-10-02T02:18:58.555Z,100842.29
2018-10-02T02:21:27.754Z,100837.20
2018-10-02T02:23:56.950Z,100845.11
2018-10-02T02:26:26.107Z,100846.05
2018-10-02T02:28:55.251Z,100844.38
2018-10-02T02:31:24.443Z,100852.38
2018-10-02T02:33:53.607Z,100845.69
2018-10-02T02:36:22.791Z,100846.50
2018-10-02T02:38:52.015Z,100851.62
2018-10-02T02:41:21.234Z,100850.08
2018-10-02T02:43:50.403Z,100843.41
2018-10-02T02:46:19.628Z,100850.52
2018-10-02T02:48:53.973Z,100842.17
2018-10-02T02:51:28.543Z,100842.91
2018-10-02T02:53:57.742Z,100846.03
2018-10-02T02:56:27.605Z,100847.44
2018-10-02T02:58:57.559Z,100848.43
2018-10-02T03:01:27.008Z,100842.76
2018-10-02T03:03:56.202Z,100845.73
2018-10-02T03:06:25.428Z,100843.13
2018-10-02T03:08:55.711Z,100842.44
2018-10-02T03:11:24.886Z,100836.43
2018-10-02T03:13:54.092Z,100837.69
2018-10-02T03:16:23.316Z,100834.78
2018-10-02T03:18:52.626Z,100845.11
2018-10-02T03:21:21.900Z,100842.27
2018-10-02T03:23:51.103Z,100837.69
2018-10-02T03:26:20.306Z,100837.02
2018-10-02T03:28:49.475Z,100834.03
2018-10-02T03:31:18.684Z,100831.20
2018-10-02T03:33:47.871Z,100827.10
2018-10-02T03:36:17.535Z,100831.39
2018-10-02T03:38:46.740Z,100831.44
2018-10-02T03:41:16.303Z,100823.76
2018-10-02T03:43:45.481Z,100828.09
2018-10-02T03:46:15.354Z,100831.39
2018-10-02T03:48:44.583Z,100836.52
2018-10-02T03:51:14.331Z,100827.76
2018-10-02T03:53:43.499Z,100833.09
2018-10-02T03:56:12.687Z,100825.62
2018-10-02T03:58:41.910Z,100820.44
2018-10-02T04:01:11.164Z,100810.42
2018-10-02T04:03:40.427Z,100811.84
2018-10-02T04:06:09.539Z,100811.86
2018-10-02T04:08:38.719Z,100819.27
2018-10-02T04:11:10.910Z,100811.99
2018-10-02T04:13:40.071Z,100811.66
2018-10-02T04:16:09.251Z,100813.15
2018-10-02T04:18:38.447Z,100815.04
2018-10-02T04:21:07.621Z,100810.70
2018-10-02T04:23:36.848Z,100804.54
2018-10-02T04:26:06.071Z,100796.39
2018-10-02T04:28:35.322Z,100802.93
2018-10-02T04:31:04.492Z,100797.41
2018-10-02T04:33:33.699Z,100803.67
2018-10-02T04:36:02.907Z,100803.34
2018-10-02T04:38:32.299Z,100806.84
2018-10-02T04:41:01.496Z,100802.95
2018-10-02T04:43:30.677Z,100809.17
2018-10-02T04:46:01.103Z,100805.67
2018-10-02T04:48:30.300Z,100797.33
2018-10-02T04:50:59.534Z,100800.59
2018-10-02T04:53:28.773Z,100805.00
2018-10-02T04:55:58.014Z,100804.38
2018-10-02T04:58:27.183Z,100799.77
2018-10-02T05:00:56.471Z,100801.29
2018-10-02T05:03:25.623Z,100811.72
2018-10-02T05:05:54.830Z,100803.91
2018-10-02T05:08:23.989Z,100810.53
2018-10-02T05:10:53.171Z,100811.59
2018-10-02T05:13:22.343Z,100815.31
2018-10-02T05:15:51.754Z,100811.52
2018-10-02T05:18:20.945Z,100799.32
2018-10-02T05:20:53.052Z,100801.43
2018-10-02T05:23:22.216Z,100801.83
2018-10-02T05:25:51.435Z,100806.50
2018-10-02T05:28:22.023Z,100802.17
2018-10-02T05:30:52.319Z,100804.36
2018-10-02T05:33:21.484Z,100812.33
2018-10-02T05:35:50.677Z,100810.84
2018-10-02T05:38:19.911Z,100815.47
2018-10-02T05:40:49.069Z,100810.16
2018-10-02T05:43:18.249Z,100817.12
2018-10-02T05:45:50.323Z,100820.00
2018-10-02T05:48:19.594Z,100814.51
2018-10-02T05:50:48.785Z,100803.86
2018-10-02T05:53:17.960Z,100805.85
2018-10-02T05:55:47.154Z,100807.11
2018-10-02T05:58:16.315Z,100808.88
2018-10-02T06:00:45.792Z,100812.12
2018-10-02T06:03:15.007Z,100818.87
2018-10-02T06:05:44.206Z,100820.64
2018-10-02T06:08:13.370Z,100807.00
2018-10-02T06:10:42.555Z,100797.19
2018-10-02T06:13:11.792Z,100790.14
2018-10-02T06:15:41.040Z,100771.84
2018-10-02T06:18:10.435Z,100773.10
2018-10-02T06:20:39.697Z,100773.34
2018-10-02T06:23:09.327Z,100790.11
2018-10-02T06:25:38.579Z,100792.91
2018-10-02T06:28:08.090Z,100796.39
2018-10-02T06:30:37.303Z,100791.44
2018-10-02T06:33:06.715Z,100794.58
2018-10-02T06:35:35.932Z,100801.66
2018-10-02T06:38:05.404Z,100803.77
2018-10-02T06:40:34.546Z,100807.00
2018-10-02T06:43:03.768Z,100803.88
2018-10-02T06:45:33.044Z,100816.93
2018-10-02T06:48:02.213Z,100823.47
2018-10-02T06:50:31.500Z,100825.83
2018-10-02T06:53:00.644Z,100823.81
2018-10-02T06:55:29.907Z,100828.49
2018-10-02T06:57:59.096Z,100825.64
2018-10-02T07:00:28.419Z,100825.00
2018-10-02T07:02:57.632Z,100822.65
2018-10-02T07:05:26.761Z,100825.31
2018-10-02T07:07:55.982Z,100827.30
2018-10-02T07:10:25.180Z,100824.31
2018-10-02T07:12:54.434Z,100819.15
2018-10-02T07:15:23.611Z,100819.11
2018-10-02T07:17:52.800Z,100818.44
2018-10-02T07:20:22.002Z,100812.61
2018-10-02T07:22:51.192Z,100812.94
2018-10-02T07:25:20.435Z,100812.27
2018-10-02T07:27:49.763Z,100813.27
2018-10-02T07:30:18.826Z,100818.44
2018-10-02T07:32:48.045Z,100814.95
2018-10-02T07:35:19.988Z,100815.97
2018-10-02T07:37:49.161Z,100818.79
2018-10-02T07:40:18.378Z,100819.80
2018-10-02T07:42:47.560Z,100819.16
2018-10-02T07:45:16.789Z,100817.32
2018-10-02T07:47:46.029Z,100816.47
2018-10-02T07:50:15.206Z,100818.98
2018-10-02T07:52:44.384Z,100818.99
2018-10-02T07:55:13.630Z,100826.69
2018-10-02T07:57:42.827Z,100829.03
2018-10-02T08:00:12.573Z,100839.20
2018-10-02T08:02:41.873Z,100837.53
2018-10-02T08:05:11.629Z,100834.54
2018-10-02T08:07:40.789Z,100837.72
2018-10-02T08:10:11.003Z,100834.36
2018-10-02T08:12:40.226Z,100844.39
2018-10-02T08:15:10.503Z,100845.88
2018-10-02T08:17:40.037Z,100844.56
2018-10-02T08:20:10.247Z,100841.39
2018-10-02T08:22:39.427Z,100833.02
2018-10-02T08:25:09.920Z,100832.86
2018-10-02T08:27:39.108Z,100832.17
2018-10-02T08:30:09.696Z,100830.19
2018-10-02T08:32:38.991Z,100838.04
2018-10-02T08:35:08.824Z,100835.52
2018-10-02T08:37:38.031Z,100839.88
2018-10-02T08:40:07.402Z,100830.16
2018-10-02T08:42:36.595Z,100827.67
2018-10-02T08:45:05.805Z,100831.70
2018-10-02T08:47:35.046Z,100829.02
2018-10-02T08:50:04.210Z,100822.33
2018-10-02T08:52:33.378Z,100826.52
2018-10-02T08:55:02.586Z,100831.50
2018-10-02T08:57:31.764Z,100820.52
2018-10-02T09:00:00.930Z,100812.59
2018-10-02T09:02:30.248Z,100809.16
2018-10-02T09:04:59.375Z,100799.60
2018-10-02T09:07:28.576Z,100791.09
2018-10-02T09:09:57.886Z,100790.41
2018-10-02T09:12:27.098Z,100788.45
2018-10-02T09:14:56.267Z,100792.28
2018-10-02T09:17:25.459Z,100790.70
2018-10-02T09:19:54.692Z,100783.94
2018-10-02T09:22:23.969Z,100789.96
2018-10-02T09:24:53.206Z,100792.50
2018-10-02T09:27:22.378Z,100793.88
2018-10-02T09:29:56.854Z,100803.08
2018-10-02T09:32:31.316Z,100799.23
2018-10-02T09:35:05.632Z,100799.91
2018-10-02T09:37:40.127Z,100791.19
2018-10-02T09:40:14.738Z,100798.70
2018-10-02T09:42:49.293Z,100785.74
2018-10-02T09:45:18.466Z,100789.94
2018-10-02T09:47:47.653Z,100788.92
2018-10-02T09:50:16.855Z,100787.62
2018-10-02T09:52:46.080Z,100791.30
2018-10-02T09:55:15.332Z,100792.95
2018-10-02T09:57:44.546Z,100791.62
2018-10-02T10:00:22.843Z,100787.83
2018-10-02T10:02:56.351Z,100785.83
2018-10-02T10:05:33.815Z,100780.83
2018-10-02T10:08:03.695Z,100776.00
2018-10-02T10:10:34.337Z,100770.61
2018-10-02T10:13:04.808Z,100768.39
2018-10-02T10:15:35.108Z,100754.96
2018-10-02T10:18:04.288Z,100757.59
2018-10-02T10:20:33.491Z,100752.66
2018-10-02T10:23:02.886Z,100747.05
2018-10-02T10:25:32.089Z,100746.53
2018-10-02T10:28:01.486Z,100746.64
2018-10-02T10:30:30.711Z,100741.68
2018-10-02T10:32:59.923Z,100733.41
2018-10-02T10:35:29.120Z,100724.81
2018-10-02T10:37:58.300Z,100728.14
2018-10-02T10:40:27.511Z,100734.53
2018-10-02T10:42:56.671Z,100720.19
2018-10-02T10:45:25.915Z,100728.89
2018-10-02T10:47:55.076Z,100727.55
2018-10-02T10:50:25.239Z,100724.63
2018-10-02T10:52:54.574Z,100717.78
2018-10-02T10:55:40.970Z,100721.16
2018-10-02T10:58:10.479Z,100721.66
2018-10-02T11:00:39.702Z,100720.03
2018-10-02T11:03:09.685Z,100716.98
2018-10-02T11:05:38.853Z,100707.82
2018-10-02T11:08:08.487Z,100704.89
2018-10-02T11:10:37.697Z,100703.33
2018-10-02T11:13:07.296Z,100707.63
2018-10-02T11:15:36.484Z,100704.70
2018-10-02T11:18:05.790Z,100700.74
2018-10-02T11:20:37.234Z,100687.72
2018-10-02T11:23:06.459Z,100688.81
2018-10-02T11:25:35.698Z,100678.93
2018-10-02T11:28:04.875Z,100685.41
2018-10-02T11:30:34.060Z,100675.42
2018-10-02T11:33:03.259Z,100677.91
2018-10-02T11:35:32.562Z,100684.92
2018-10-02T11:38:01.666Z,100680.89
2018-10-02T11:40:30.870Z,100665.75
2018-10-02T11:43:00.052Z,100674.70
2018-10-02T11:45:29.249Z,100680.86
2018-10-02T11:47:58.443Z,100687.42
2018-10-02T11:50:27.606Z,100686.02
2018-10-02T11:52:56.790Z,100680.52
2018-10-02T11:55:26.128Z,100688.23
2018-10-02T11:57:55.184Z,100684.23
2018-10-02T12:00:24.479Z,100682.89
2018-10-02T12:02:53.728Z,100670.70
2018-10-02T12:05:22.969Z,100676.70
2018-10-02T12:07:52.171Z,100672.67
2018-10-02T12:10:21.566Z,100677.34
2018-10-02T12:12:50.780Z,100680.83
2018-10-02T12:15:20.156Z,100673.61
2018-10-02T12:17:49.287Z,100665.43
2018-10-02T12:20:18.483Z,100673.31
2018-10-02T12:22:47.657Z,100673.46
2018-10-02T12:25:16.955Z,100677.28
2018-10-02T12:27:46.128Z,100667.69
2018-10-02T12:30:15.362Z,100672.32
2018-10-02T12:32:44.546Z,100669.97
2018-10-02T12:35:13.895Z,100679.84
2018-10-02T12:37:43.126Z,100676.02
2018-10-02T12:40:12.559Z,100678.54
2018-10-02T12:42:41.754Z,100679.86
2018-10-02T12:45:11.699Z,100672.27
2018-10-02T12:47:40.820Z,100661.40
2018-10-02T12:50:11.044Z,100663.40
2018-10-02T12:52:40.351Z,100663.70
2018-10-02T12:55:10.311Z,100669.15
2018-10-02T12:57:39.492Z,100662.19
2018-10-02T13:00:10.187Z,100663.06
2018-10-02T13:02:39.407Z,100660.23
2018-10-02T13:05:09.892Z,100657.22
2018-10-02T13:07:39.072Z,100637.27
2018-10-02T13:10:08.736Z,100632.89
2018-10-02T13:12:37.954Z,100636.25
2018-10-02T13:15:07.413Z,100637.91
2018-10-02T13:17:36.581Z,100628.03
2018-10-02T13:20:06.596Z,100639.31
2018-10-02T13:22:35.828Z,100637.79
2018-10-02T13:25:05.029Z,100638.09
2018-10-02T13:27:34.200Z,100628.98
2018-10-02T13:30:03.399Z,100629.78
2018-10-02T13:32:32.597Z,100630.23
2018-10-02T13:35:01.792Z,100628.42
2018-10-02T13:37:30.967Z,100639.33
2018-10-02T13:40:00.127Z,100638.02
2018-10-02T13:42:29.291Z,100637.01
2018-10-02T13:44:58.490Z,100622.41
2018-10-02T13:47:27.641Z,100619.89
2018-10-02T13:49:56.846Z,100619.73
2018-10-02T13:52:26.151Z,100604.98
2018-10-02T13:54:55.469Z,100603.33
2018-10-02T13:57:24.618Z,100598.41
2018-10-02T13:59:53.790Z,100592.05
2018-10-02T14:02:23.060Z,100586.22
2018-10-02T14:04:52.215Z,100581.22
2018-10-02T14:07:21.630Z,100579.70
2018-10-02T14:09:50.785Z,100581.16
2018-10-02T14:12:19.994Z,100579.96
2018-10-02T14:14:49.185Z,100592.22
2018-10-02T14:17:18.737Z,100588.24
2018-10-02T14:19:47.927Z,100581.30
2018-10-02T14:22:17.271Z,100586.14
2018-10-02T14:24:46.431Z,100590.67
2018-10-02T14:27:15.588Z,100589.51
2018-10-02T14:29:44.839Z,100588.50
2018-10-02T14:32:14.126Z,100581.70
2018-10-02T14:34:43.677Z,100588.39
2018-10-02T14:37:12.933Z,100594.84
2018-10-02T14:39:42.140Z,100597.70
2018-10-02T14:42:11.327Z,100596.36
2018-10-02T14:44:40.588Z,100591.22
2018-10-02T14:47:10.175Z,100577.13
2018-10-02T14:49:39.469Z,100568.63
2018-10-02T14:52:08.895Z,100580.81
2018-10-02T14:54:38.048Z,100585.27
2018-10-02T14:57:07.577Z,100593.92
2018-10-02T14:59:36.764Z,100590.56
2018-10-02T15:02:06.069Z,100585.89
2018-10-02T15:04:35.259Z,100591.06
2018-10-02T15:07:04.459Z,100586.08
2018-10-02T15:09:33.648Z,100590.12
2018-10-02T15:12:02.860Z,100587.00
2018-10-02T15:14:32.012Z,100590.38
2018-10-02T15:17:01.203Z,100589.19
2018-10-02T15:19:30.437Z,100600.60
2018-10-02T15:21:59.778Z,100596.23
2018-10-02T15:24:28.959Z,100591.88
2018-10-02T15:26:58.208Z,100587.88
2018-10-02T15:29:27.404Z,100595.08
2018-10-02T15:31:57.414Z,100592.20
2018-10-02T15:34:26.620Z,100586.90
2018-10-02T15:36:55.816Z,100586.88
2018-10-02T15:39:25.047Z,100588.22
2018-10-02T15:41:54.262Z,100579.50
2018-10-02T15:44:23.469Z,100576.80
2018-10-02T15:46:52.632Z,100571.95
2018-10-02T15:49:21.805Z,100564.01
2018-10-02T15:51:51.008Z,100556.66
2018-10-02T15:54:20.200Z,100560.35
2018-10-02T15:56:49.410Z,100551.41
2018-10-02T15:59:18.609Z,100556.27
2018-10-02T16:01:47.789Z,100566.14
2018-10-02T16:04:47.265Z,100573.02
2018-10-02T16:07:16.459Z,100573.84
2018-10-02T16:09:45.614Z,100571.60
2018-10-02T16:12:14.793Z,100571.13
2018-10-02T16:14:43.963Z,100566.93
2018-10-02T16:17:13.509Z,100565.73
2018-10-02T16:19:42.744Z,100564.08
2018-10-02T16:22:11.990Z,100567.62
2018-10-02T16:24:41.136Z,100568.95
2018-10-02T16:27:10.820Z,100568.31
2018-10-02T16:29:39.991Z,100573.27
2018-10-02T16:32:09.728Z,100571.81
2018-10-02T16:34:48.982Z,100583.98
2018-10-02T16:37:08.473Z,100577.97
2018-10-02T16:39:37.732Z,100583.47
2018-10-02T16:42:07.432Z,100588.50
2018-10-02T16:44:36.614Z,100593.92
2018-10-02T16:47:05.952Z,100599.70
2018-10-02T16:49:35.106Z,100603.58
2018-10-02T16:52:04.319Z,100600.06
2018-10-02T16:54:33.555Z,100608.64
2018-10-02T16:57:02.708Z,100607.77
2018-10-02T16:59:31.895Z,100611.57
2018-10-02T17:02:01.066Z,100609.44
2018-10-02T17:04:30.260Z,100610.88
2018-10-02T17:06:59.569Z,100613.09
2018-10-02T17:09:31.635Z,100610.27
2018-10-02T17:12:00.815Z,100621.73
2018-10-02T17:14:29.950Z,100623.53
2018-10-02T17:16:59.160Z,100627.78
2018-10-02T17:19:28.602Z,100623.81
2018-10-02T17:21:57.864Z,100624.23
2018-10-02T17:24:27.049Z,100632.26
2018-10-02T17:26:56.268Z,100637.94
2018-10-02T17:29:25.493Z,100633.51
2018-10-02T17:31:55.139Z,100642.16
2018-10-02T17:34:24.336Z,100644.23
2018-10-02T17:36:53.547Z,100646.69
2018-10-02T17:39:22.794Z,100642.59
2018-10-02T17:41:52.097Z,100645.59
2018-10-02T17:44:21.314Z,100648.31
2018-10-02T17:46:50.799Z,100647.63
2018-10-02T17:49:20.347Z,100641.57
2018-10-02T17:51:49.571Z,100640.10
2018-10-02T17:54:18.749Z,100634.14
2018-10-02T17:56:48.001Z,100631.27
2018-10-02T17:59:17.215Z,100637.42
2018-10-02T18:01:46.684Z,100634.92
2018-10-02T18:04:16.665Z,100635.06
2018-10-02T18:06:45.895Z,100630.39
2018-10-02T18:09:15.565Z,100641.94
2018-10-02T18:11:44.830Z,100635.75
2018-10-02T18:14:16.269Z,100644.39
2018-10-02T18:16:45.552Z,100648.59
2018-10-02T18:19:15.663Z,100651.41
2018-10-02T18:21:46.746Z,100659.87
2018-10-02T18:24:16.011Z,100650.71
2018-10-02T18:26:45.219Z,100650.25
2018-10-02T18:29:14.898Z,100649.61
2018-10-02T18:31:44.112Z,100655.30
2018-10-02T18:34:13.848Z,100663.42
2018-10-02T18:36:43.287Z,100669.23
2018-10-02T18:39:12.874Z,100675.25
2018-10-02T18:41:42.126Z,100677.66
2018-10-02T18:44:11.378Z,100674.34
2018-10-02T18:46:40.569Z,100682.28
2018-10-02T18:49:09.718Z,100662.59
2018-10-02T18:51:38.891Z,100666.94
2018-10-02T18:54:08.065Z,100661.84
2018-10-02T18:56:37.817Z,100659.73
2018-10-02T18:59:07.234Z,100658.83
2018-10-02T19:01:36.833Z,100655.69
2018-10-02T19:04:06.851Z,100663.80
2018-10-02T19:06:36.550Z,100667.90
2018-10-02T19:09:17.495Z,100666.23
2018-10-02T19:11:52.091Z,100670.64
2018-10-02T19:14:22.113Z,100664.83
2018-10-02T19:16:51.732Z,100659.50
2018-10-02T19:19:26.086Z,100675.87
2018-10-02T19:21:56.061Z,100670.33
2018-10-02T19:24:25.716Z,100672.68
2018-10-02T19:26:55.846Z,100680.63
2018-10-02T19:29:25.335Z,100668.02
2018-10-02T19:32:28.964Z,100673.05
2018-10-02T19:34:58.631Z,100672.87
2018-10-02T19:37:33.336Z,100675.13
2018-10-02T19:40:03.118Z,100667.83
2018-10-02T19:42:32.832Z,100686.78
2018-10-02T19:45:07.432Z,100677.72
2018-10-02T19:47:37.216Z,100673.12
2018-10-02T19:50:07.102Z,100682.00
2018-10-02T19:52:36.557Z,100680.24
2018-10-02T19:55:07.223Z,100669.19
2018-10-02T19:57:36.987Z,100675.19
2018-10-02T20:00:08.258Z,100670.27
2018-10-02T20:02:38.084Z,100658.21
2018-10-02T20:05:08.545Z,100655.77
2018-10-02T20:07:38.150Z,100663.64
2018-10-02T20:10:07.642Z,100663.00
2018-10-02T20:12:37.881Z,100652.96
2018-10-02T20:15:07.208Z,100658.28
2018-10-02T20:17:36.407Z,100653.42
2018-10-02T20:20:05.607Z,100650.66
2018-10-02T20:25:41.299Z,100657.41
2018-10-02T20:28:10.506Z,100655.53
2018-10-02T20:30:39.896Z,100660.48
2018-10-02T20:33:09.179Z,100673.27
2018-10-02T20:35:38.444Z,100669.35
2018-10-02T20:38:09.892Z,100675.27
2018-10-02T20:40:39.365Z,100681.31
2018-10-02T20:43:08.568Z,100677.06
2018-10-02T20:45:37.787Z,100685.02
2018-10-02T20:48:06.992Z,100669.27
2018-10-02T20:50:37.070Z,100670.27
2018-10-02T20:53:06.300Z,100670.59
2018-10-02T20:55:35.501Z,100673.19
2018-10-02T20:58:04.731Z,100672.98
2018-10-02T21:00:34.161Z,100676.62
2018-10-02T21:03:03.377Z,100668.62
2018-10-02T21:05:32.557Z,100672.14
2018-10-02T21:08:01.771Z,100670.88
2018-10-02T21:10:31.021Z,100667.02
2018-10-02T21:13:00.208Z,100662.12
2018-10-02T21:15:29.455Z,100654.12
2018-10-02T21:17:58.587Z,100664.15
2018-10-02T21:20:27.812Z,100671.39
2018-10-02T21:22:56.979Z,100669.31
2018-10-02T21:25:26.209Z,100674.02
2018-10-02T21:27:55.456Z,100674.76
2018-10-02T21:30:24.680Z,100662.59
2018-10-02T21:32:53.872Z,100662.20
2018-10-02T21:35:23.066Z,100664.67
2018-10-02T21:37:52.475Z,100659.45
2018-10-02T21:40:21.761Z,100655.61
2018-10-02T21:42:50.848Z,100650.91
2018-10-02T21:45:20.054Z,100646.13
2018-10-02T21:47:49.458Z,100650.91
2018-10-02T21:50:18.733Z,100657.67
2018-10-02T21:52:47.874Z,100657.95
2018-10-02T21:55:17.638Z,100659.02
2018-10-02T21:57:46.827Z,100656.16
2018-10-02T22:00:17.700Z,100659.08
2018-10-02T22:02:46.952Z,100662.42
2018-10-02T22:05:17.690Z,100669.63
2018-10-02T22:07:47.033Z,100657.86
2018-10-02T22:10:17.412Z,100656.77
2018-10-02T22:12:46.904Z,100654.66
2018-10-02T22:15:17.140Z,100654.04
2018-10-02T22:17:46.782Z,100655.77
2018-10-02T22:20:17.175Z,100654.47
2018-10-02T22:22:46.575Z,100651.74
2018-10-02T22:25:17.910Z,100645.72
2018-10-02T22:27:47.274Z,100638.89
2018-10-02T22:30:17.776Z,100630.20
2018-10-02T22:32:47.102Z,100641.88
2018-10-02T22:35:17.363Z,100638.84
2018-10-02T22:37:46.544Z,100634.90
2018-10-02T22:40:17.116Z,100632.45
2018-10-02T22:42:46.332Z,100636.22
2018-10-02T22:45:16.855Z,100636.61
2018-10-02T22:47:46.163Z,100630.03
2018-10-02T22:50:16.491Z,100631.05
2018-10-02T22:52:46.355Z,100636.86
2018-10-02T22:55:17.400Z,100638.00
2018-10-02T22:57:46.559Z,100636.17
2018-10-02T23:00:16.771Z,100633.47
2018-10-02T23:02:45.948Z,100625.47
2018-10-02T23:05:16.409Z,100630.14
2018-10-02T23:07:45.595Z,100636.15
2018-10-02T23:10:16.063Z,100639.78
2018-10-02T23:15:39.219Z,100635.25
2018-10-02T23:18:08.439Z,100635.93
2018-10-02T23:20:37.644Z,100647.82
2018-10-02T23:23:06.931Z,100661.31
2018-10-02T23:25:36.174Z,100658.80
2018-10-02T23:28:05.343Z,100661.58
2018-10-02T23:30:34.544Z,100650.33
2018-10-02T23:33:03.876Z,100653.02
2018-10-02T23:35:33.074Z,100646.45
2018-10-02T23:38:02.322Z,100651.36
2018-10-02T23:40:31.528Z,100655.78
2018-10-02T23:43:00.674Z,100652.00
2018-10-02T23:45:29.884Z,100652.84
2018-10-02T23:47:59.039Z,100653.41
2018-10-02T23:50:28.292Z,100645.69
2018-10-02T23:52:57.466Z,100644.73
2018-10-02T23:55:26.683Z,100654.55
2018-10-02T23:57:55.839Z,100656.55
